createdAt,value
2018-11-29T00:00:24.402Z,31.17
2018-11-29T00:05:09.220Z,29.27
2018-11-29T00:09:54.138Z,32.93
2018-11-29T00:14:38.982Z,30.40
2018-11-29T00:19:23.861Z,31.10
2018-11-29T00:24:08.610Z,31.17
2018-11-29T00:28:53.442Z,24.40
2018-11-29T00:33:38.270Z,26.67
2018-11-29T00:38:23.182Z,25.30
2018-11-29T00:43:08.007Z,26.60
2018-11-29T00:47:52.982Z,27.13
2018-11-29T00:52:38.574Z,27.27
2018-11-29T00:57:23.428Z,28.67
2018-11-29T01:02:08.255Z,31.37
2018-11-29T01:06:53.092Z,28.73
2018-11-29T01:11:37.861Z,22.13
2018-11-29T01:16:22.627Z,22.87
2018-11-29T01:21:07.460Z,22.83
2018-11-29T01:25:52.314Z,27.87
2018-11-29T01:30:37.197Z,31.80
2018-11-29T01:35:22.129Z,26.97
2018-11-29T01:40:15.184Z,24.40
2018-11-29T01:45:00.026Z,29.70
2018-11-29T01:49:44.918Z,28.10
2018-11-29T01:54:29.791Z,29.30
2018-11-29T01:59:14.690Z,26.53
2018-11-29T02:03:59.530Z,26.93
2018-11-29T02:08:44.348Z,29.07
2018-11-29T02:13:29.120Z,27.13
2018-11-29T02:18:13.974Z,28.10
2018-11-29T02:22:58.746Z,35.67
2018-11-29T02:27:43.567Z,35.47
2018-11-29T02:32:28.437Z,29.97
2018-11-29T02:37:13.349Z,29.73
2018-11-29T02:41:58.159Z,22.87
2018-11-29T02:46:42.986Z,26.70
2018-11-29T02:51:27.797Z,25.33
2018-11-29T02:56:12.708Z,22.77
2018-11-29T03:00:57.537Z,33.20
2018-11-29T03:05:42.401Z,25.47
2018-11-29T03:10:27.880Z,26.47
2018-11-29T03:15:14.554Z,31.00
2018-11-29T03:19:59.367Z,34.87
2018-11-29T03:24:44.294Z,24.17
2018-11-29T03:29:29.094Z,24.20
2018-11-29T03:34:14.015Z,25.07
2018-11-29T03:38:58.843Z,29.97
2018-11-29T03:43:43.707Z,24.13
2018-11-29T03:48:28.601Z,27.53
2018-11-29T03:53:13.437Z,29.20
2018-11-29T03:57:58.316Z,27.30
2018-11-29T04:02:43.460Z,24.70
2018-11-29T04:07:28.352Z,24.77
2018-11-29T04:12:13.204Z,12.57
2018-11-29T04:16:58.057Z,14.97
2018-11-29T04:21:42.864Z,17.30
2018-11-29T04:26:27.716Z,22.77
2018-11-29T04:31:12.548Z,27.10
2018-11-29T04:35:57.389Z,21.27
2018-11-29T04:40:42.245Z,19.37
2018-11-29T04:45:36.649Z,24.87
2018-11-29T04:50:21.531Z,22.53
2018-11-29T04:55:06.864Z,22.67
2018-11-29T04:59:51.723Z,20.70
2018-11-29T05:04:36.694Z,22.27
2018-11-29T05:09:21.522Z,17.80
2018-11-29T05:14:06.658Z,16.90
2018-11-29T05:18:52.346Z,15.43
2018-11-29T05:23:37.128Z,19.60
2018-11-29T05:28:21.859Z,17.63
2018-11-29T05:33:06.722Z,17.07
2018-11-29T05:37:51.547Z,12.07
2018-11-29T05:42:36.408Z,13.33
2018-11-29T05:47:21.158Z,11.43
2018-11-29T05:52:06.089Z,7.17
2018-11-29T05:56:50.932Z,11.10
2018-11-29T06:01:37.759Z,16.67
2018-11-29T06:06:22.595Z,13.93
2018-11-29T06:11:07.470Z,13.00
2018-11-29T06:15:52.293Z,16.03
2018-11-29T06:20:37.197Z,11.23
2018-11-29T06:25:22.027Z,11.97
2018-11-29T06:30:14.322Z,13.17
2018-11-29T06:34:59.183Z,14.70
2018-11-29T06:39:44.007Z,19.43
2018-11-29T06:44:28.846Z,17.13
2018-11-29T06:49:13.674Z,19.20
2018-11-29T06:53:58.508Z,19.00
2018-11-29T06:58:43.350Z,16.63
2018-11-29T07:03:28.901Z,21.33
2018-11-29T07:08:12.941Z,19.07
2018-11-29T07:12:57.793Z,20.63
2018-11-29T07:17:43.199Z,21.53
2018-11-29T07:22:27.977Z,30.80
2018-11-29T07:27:12.766Z,29.90
2018-11-29T07:31:57.566Z,22.13
2018-11-29T07:36:42.336Z,26.27
2018-11-29T07:41:27.253Z,22.63
2018-11-29T07:46:12.019Z,21.03
2018-11-29T07:50:56.806Z,20.70
2018-11-29T07:55:41.689Z,31.37
2018-11-29T08:00:26.600Z,26.43
2018-11-29T08:05:12.385Z,23.23
2018-11-29T08:09:57.242Z,19.43
2018-11-29T08:14:42.071Z,20.20
2018-11-29T08:19:26.801Z,20.17
2018-11-29T08:24:11.513Z,19.80
2018-11-29T08:28:56.431Z,21.17
2018-11-29T08:33:41.205Z,20.77
2018-11-29T08:38:26.023Z,43.40
2018-11-29T08:43:10.761Z,25.63
2018-11-29T08:47:55.617Z,15.67
2018-11-29T08:52:40.891Z,17.97
2018-11-29T08:57:25.634Z,18.23
2018-11-29T09:02:10.411Z,17.83
2018-11-29T09:06:55.201Z,14.70
2018-11-29T09:11:40.008Z,12.53
2018-11-29T09:16:24.792Z,13.53
2018-11-29T09:21:09.598Z,12.43
2018-11-29T09:25:54.481Z,17.20
2018-11-29T09:30:39.294Z,12.23
2018-11-29T09:35:24.085Z,12.73
2018-11-29T09:40:12.718Z,19.67
2018-11-29T09:44:57.468Z,12.77
2018-11-29T09:49:42.320Z,12.27
2018-11-29T09:54:27.380Z,17.77
2018-11-29T09:59:12.199Z,15.40
2018-11-29T10:03:57.032Z,13.60
2018-11-29T10:08:41.845Z,15.07
2018-11-29T10:13:26.642Z,11.60
2018-11-29T10:18:12.017Z,13.27
2018-11-29T10:22:56.863Z,14.83
2018-11-29T10:27:42.415Z,12.97
2018-11-29T10:32:27.375Z,12.80
2018-11-29T10:37:12.133Z,12.97
2018-11-29T10:41:57.005Z,10.73
2018-11-29T10:46:41.888Z,13.87
2018-11-29T10:51:26.703Z,12.03
2018-11-29T10:56:11.459Z,11.83
2018-11-29T11:01:01.208Z,14.37
2018-11-29T11:05:46.288Z,14.53
2018-11-29T11:10:31.151Z,11.43
2018-11-29T11:15:15.907Z,12.67
2018-11-29T11:20:00.808Z,15.33
2018-11-29T11:24:45.636Z,12.13
2018-11-29T11:29:30.533Z,14.10
2018-11-29T11:34:15.481Z,14.13
2018-11-29T11:39:00.298Z,13.10
2018-11-29T11:43:45.164Z,12.47
2018-11-29T11:48:29.979Z,12.27
2018-11-29T11:53:14.749Z,15.37
2018-11-29T11:57:59.590Z,15.93
2018-11-29T12:02:44.899Z,13.83
2018-11-29T12:07:29.628Z,13.90
2018-11-29T12:12:14.387Z,14.77
2018-11-29T12:16:59.168Z,14.73
2018-11-29T12:21:43.951Z,12.57
2018-11-29T12:26:28.759Z,15.43
2018-11-29T12:31:13.573Z,13.70
2018-11-29T12:35:58.461Z,15.23
2018-11-29T12:40:43.300Z,13.47
2018-11-29T12:45:28.187Z,13.00
2018-11-29T12:50:22.529Z,14.57
2018-11-29T12:55:08.423Z,17.43
2018-11-29T12:59:53.376Z,13.83
2018-11-29T13:04:38.205Z,16.43
2018-11-29T13:09:23.122Z,13.87
2018-11-29T13:14:08.049Z,14.33
2018-11-29T13:18:52.798Z,18.03
2018-11-29T13:23:37.720Z,13.40
2018-11-29T13:28:22.559Z,15.73
2018-11-29T13:33:08.920Z,15.20
2018-11-29T13:37:55.820Z,18.07
2018-11-29T13:42:40.659Z,13.73
2018-11-29T13:47:25.511Z,17.60
2018-11-29T13:52:10.403Z,16.70
2018-11-29T13:56:55.256Z,14.03
2018-11-29T14:01:40.130Z,16.53
2018-11-29T14:06:24.991Z,15.93
2018-11-29T14:11:09.846Z,13.83
2018-11-29T14:15:54.714Z,16.60
2018-11-29T14:20:39.540Z,17.03
2018-11-29T14:25:24.402Z,18.37
2018-11-29T14:30:28.399Z,23.53
2018-11-29T14:35:13.272Z,18.03
2018-11-29T14:39:58.100Z,21.90
2018-11-29T14:44:42.962Z,18.77
2018-11-29T14:49:27.784Z,19.53
2018-11-29T14:54:12.594Z,24.13
2018-11-29T14:58:57.448Z,24.27
2018-11-29T15:03:42.574Z,20.57
2018-11-29T15:08:27.407Z,20.07
2018-11-29T15:13:12.867Z,21.43
2018-11-29T15:17:57.831Z,22.37
2018-11-29T15:22:42.836Z,23.17
2018-11-29T15:27:27.698Z,29.77
2018-11-29T15:32:12.536Z,25.00
2018-11-29T15:36:57.885Z,29.47
2018-11-29T15:41:42.697Z,25.03
2018-11-29T15:46:27.636Z,28.00
2018-11-29T15:51:12.622Z,24.37
2018-11-29T15:55:57.616Z,25.13
2018-11-29T16:00:43.023Z,23.93
2018-11-29T16:05:28.166Z,26.57
2018-11-29T16:10:14.997Z,27.33
2018-11-29T16:15:00.226Z,28.60
2018-11-29T16:19:45.157Z,25.93
2018-11-29T16:24:30.967Z,25.90
2018-11-29T16:29:16.002Z,23.77
2018-11-29T16:34:00.939Z,25.97
2018-11-29T16:38:45.917Z,28.10
2018-11-29T16:43:30.813Z,30.53
2018-11-29T16:48:15.819Z,29.07
2018-11-29T16:53:00.952Z,23.63
2018-11-29T16:57:48.589Z,29.40
2018-11-29T17:02:33.622Z,23.97
2018-11-29T17:07:18.591Z,29.77
2018-11-29T17:12:03.570Z,23.43
2018-11-29T17:16:48.432Z,23.57
2018-11-29T17:21:33.321Z,25.80
2018-11-29T17:26:18.427Z,32.73
2018-11-29T17:31:03.441Z,32.57
2018-11-29T17:35:48.361Z,40.93
2018-11-29T17:40:33.755Z,33.83
2018-11-29T17:45:20.853Z,34.43
2018-11-29T17:50:08.921Z,31.63
2018-11-29T17:54:54.151Z,28.07
2018-11-29T17:59:38.931Z,30.47
2018-11-29T18:04:23.774Z,30.63
2018-11-29T18:09:11.636Z,27.33
2018-11-29T18:13:56.569Z,30.70
2018-11-29T18:18:41.486Z,32.77
2018-11-29T18:23:26.414Z,37.30
2018-11-29T18:28:11.874Z,32.47
2018-11-29T18:32:59.735Z,48.10
2018-11-29T18:37:45.857Z,45.70
2018-11-29T18:42:31.600Z,39.03
2018-11-29T18:47:17.383Z,40.20
2018-11-29T18:52:02.307Z,41.10
2018-11-29T18:56:47.419Z,41.67
2018-11-29T19:01:32.481Z,41.60
2018-11-29T19:06:17.329Z,38.23
2018-11-29T19:11:02.369Z,44.80
2018-11-29T19:15:47.329Z,49.70
2018-11-29T19:20:32.696Z,48.73
2018-11-29T19:25:18.531Z,45.27
2018-11-29T19:30:04.383Z,43.23
2018-11-29T19:34:48.961Z,48.43
2018-11-29T19:39:34.019Z,45.93
2018-11-29T19:44:19.663Z,45.90
2018-11-29T19:49:04.704Z,47.40
2018-11-29T19:53:49.585Z,42.47
2018-11-29T19:58:34.529Z,44.30
2018-11-29T20:03:19.542Z,44.67
2018-11-29T20:08:04.480Z,53.83
2018-11-29T20:12:54.784Z,43.50
2018-11-29T20:17:40.370Z,40.90
2018-11-29T20:22:26.594Z,55.33
2018-11-29T20:27:11.549Z,55.70
2018-11-29T20:31:56.443Z,55.47
2018-11-29T20:36:41.324Z,78.47
2018-11-29T20:41:26.375Z,74.00
2018-11-29T20:46:11.391Z,80.53
2018-11-29T20:50:57.344Z,81.87
2018-11-29T20:55:42.323Z,80.67
2018-11-29T21:00:27.295Z,38.63
2018-11-29T21:05:13.490Z,38.57
2018-11-29T21:10:02.884Z,40.57
2018-11-29T21:14:43.345Z,48.17
2018-11-29T21:19:28.312Z,49.53
2018-11-29T21:24:13.271Z,42.50
2018-11-29T21:28:58.293Z,42.60
2018-11-29T21:33:43.302Z,32.07
2018-11-29T21:38:28.308Z,35.00
2018-11-29T21:43:13.237Z,34.17
2018-11-29T21:47:58.181Z,39.07
2018-11-29T21:52:43.450Z,41.63
2018-11-29T21:57:28.406Z,61.17
2018-11-29T22:02:13.554Z,34.20
2018-11-29T22:06:58.472Z,29.13
2018-11-29T22:11:43.498Z,44.23
2018-11-29T22:16:28.406Z,24.30
2018-11-29T22:21:13.358Z,22.10
2018-11-29T22:25:59.508Z,22.80
2018-11-29T22:30:44.382Z,29.17
2018-11-29T22:35:29.217Z,29.93
2018-11-29T22:40:14.134Z,30.87
2018-11-29T22:44:58.982Z,35.10
2018-11-29T22:49:43.819Z,37.17
2018-11-29T22:54:28.581Z,35.43
2018-11-29T22:59:13.385Z,41.67
2018-11-29T23:03:58.220Z,39.93
2018-11-29T23:08:43.070Z,44.50
2018-11-29T23:13:27.952Z,46.23
2018-11-29T23:18:12.928Z,43.57
2018-11-29T23:22:57.771Z,43.27
2018-11-29T23:27:42.805Z,42.43
2018-11-29T23:32:27.735Z,45.23
2018-11-29T23:37:12.688Z,43.47
2018-11-29T23:41:57.569Z,39.50
2018-11-29T23:46:42.449Z,39.00
2018-11-29T23:51:27.261Z,37.07
2018-11-29T23:56:12.170Z,34.53
